Aktobe Airport
UATT : now visible

Airfield :











YOU CAN JOIN US ON...

 
LOGIN :

Register | Disclaimer

   EN    FR    IT 

 









Legend :    VFR   Marginal VFR   IFR   Intensive IFR   Very Intensive IFR
Visi :
Ceiling :
>= 8 km
>= 3000ft
5 to 8 km
1000 to 3000 ft
1500m to 5 km
500 to 1000 ft
800 to 1500m
200 to 500 ft
< 800m
< 200 ft
Symbols :   Thunderstorms  Fog  Heavy snow  Heavy precipitations  Wind > 20 kt






- Airport Elevation : 738 ft
- IATA code : AKX


UATT - Aktobe

CURRENT METAR :
  • 260130Z 26005MPS 7000 -RA BKN005 OVC032 01/M00 Q0993 R13/29//45 NOSIG RMK QBB170 QFE725/0967

EXPIRED METARs :
  • 260100Z 27005MPS 9999 -RA SCT004 OVC032 01/M00 Q0993 R13/29//45 NOSIG RMK QBB140 QFE725/0967
  • 260030Z 25004MPS 6000 -SN SCT004 OVC028 01/M00 Q0993 R13/29//45 NOSIG RMK QBB140 QFE725/0967
  • 260000Z 25004MPS 2100 -SN BKN004 OVC027 01/M00 Q0993 R13/29//45 NOSIG RMK QBB130 QFE725/0967
  • 252330Z 20002MPS 4000 -SN BKN003 OVC026 00/M00 Q0993 R13/29//45 NOSIG RMK QBB110 QFE726/0968
  • 252300Z 19003MPS 3000 -SN BKN005 OVC027 00/M00 Q0994 R13/29//45 NOSIG RMK QBB150 QFE726/0968

TAF TAF UATT
Valid from the 26 at 00:00 until the 27 at 00:00 UTC


252300Z 2600/2624 25005MPS 3100 -SHSN BKN011CB TXM00/2600Z TNM08/2624Z
TEMPO 2600/2606 21010MPS 1000 SHSNRA BLSN VV003
BECMG 2606/2608 27010MPS
TEMPO 2612/2618 28015MPS



MET'MAP, your aeronautical weather chart ! - Copyright ORBIFLY December 2007 - Disclaimer

ORBIFLY MET'MAP TEAM :

Programming & Development : Alexandra Zaïnal
Concept & original design : Baudouin d'Aumeries
Assistance for programming : Marc-Olivier Méhu
Technical & hardware support : Manuel Goepfert

Contact : metmap@orbifly.com




SOURCES & CREDITS :

   NOAA       Earth
Advisory